sensor_id;sensor_type;location;lat;lon;timestamp;temperature;humidity
37281;DHT22;23169;41.804;12.596;2023-08-07T00:00:34;22.20;99.90
37281;DHT22;23169;41.804;12.596;2023-08-07T00:03:03;22.10;99.90
37281;DHT22;23169;41.804;12.596;2023-08-07T00:05:32;22.00;99.90
37281;DHT22;23169;41.804;12.596;2023-08-07T00:08:01;22.00;99.90
37281;DHT22;23169;41.804;12.596;2023-08-07T00:10:30;22.00;99.90
37281;DHT22;23169;41.804;12.596;2023-08-07T00:13:00;22.10;99.90
37281;DHT22;23169;41.804;12.596;2023-08-07T00:15:31;22.10;99.90
37281;DHT22;23169;41.804;12.596;2023-08-07T00:18:03;22.10;99.90
37281;DHT22;23169;41.804;12.596;2023-08-07T00:20:34;22.00;99.90
37281;DHT22;23169;41.804;12.596;2023-08-07T00:23:04;22.00;99.90
37281;DHT22;23169;41.804;12.596;2023-08-07T00:25:34;22.00;99.90
37281;DHT22;23169;41.804;12.596;2023-08-07T00:28:03;22.10;99.90
37281;DHT22;23169;41.804;12.596;2023-08-07T00:30:33;22.10;99.90
37281;DHT22;23169;41.804;12.596;2023-08-07T00:33:02;22.10;99.90
37281;DHT22;23169;41.804;12.596;2023-08-07T00:35:32;22.10;99.90
37281;DHT22;23169;41.804;12.596;2023-08-07T00:38:01;22.10;99.90
37281;DHT22;23169;41.804;12.596;2023-08-07T00:40:38;22.00;99.90
37281;DHT22;23169;41.804;12.596;2023-08-07T00:43:08;22.00;99.90
37281;DHT22;23169;41.804;12.596;2023-08-07T00:45:42;22.00;99.90
37281;DHT22;23169;41.804;12.596;2023-08-07T00:48:12;21.90;99.90
37281;DHT22;23169;41.804;12.596;2023-08-07T00:50:42;21.90;99.90
37281;DHT22;23169;41.804;12.596;2023-08-07T00:53:12;21.90;99.90
37281;DHT22;23169;41.804;12.596;2023-08-07T00:55:42;21.80;99.90
37281;DHT22;23169;41.804;12.596;2023-08-07T00:58:17;21.80;99.90
37281;DHT22;23169;41.804;12.596;2023-08-07T01:00:49;21.80;99.90
37281;DHT22;23169;41.804;12.596;2023-08-07T01:03:20;21.80;99.90
37281;DHT22;23169;41.804;12.596;2023-08-07T01:05:50;21.80;99.90
37281;DHT22;23169;41.804;12.596;2023-08-07T01:08:25;21.80;99.90
37281;DHT22;23169;41.804;12.596;2023-08-07T01:19:28;21.70;99.90
37281;DHT22;23169;41.804;12.596;2023-08-07T01:22:24;21.70;99.90
37281;DHT22;23169;41.804;12.596;2023-08-07T01:24:53;21.80;99.90
37281;DHT22;23169;41.804;12.596;2023-08-07T01:30:21;21.80;99.90
37281;DHT22;23169;41.804;12.596;2023-08-07T01:35:27;21.80;99.90
37281;DHT22;23169;41.804;12.596;2023-08-07T01:38:00;21.80;99.90
37281;DHT22;23169;41.804;12.596;2023-08-07T01:40:31;21.80;99.90
37281;DHT22;23169;41.804;12.596;2023-08-07T01:45:32;21.80;99.90
37281;DHT22;23169;41.804;12.596;2023-08-07T01:48:04;21.70;99.90
37281;DHT22;23169;41.804;12.596;2023-08-07T01:50:32;21.70;99.90
37281;DHT22;23169;41.804;12.596;2023-08-07T01:55:32;21.70;99.90
37281;DHT22;23169;41.804;12.596;2023-08-07T01:58:02;21.70;99.90
37281;DHT22;23169;41.804;12.596;2023-08-07T02:00:33;21.70;99.90
37281;DHT22;23169;41.804;12.596;2023-08-07T02:03:03;21.70;99.90
37281;DHT22;23169;41.804;12.596;2023-08-07T02:05:33;21.70;99.90
37281;DHT22;23169;41.804;12.596;2023-08-07T02:08:01;21.70;99.90
37281;DHT22;23169;41.804;12.596;2023-08-07T02:10:31;21.70;99.90
37281;DHT22;23169;41.804;12.596;2023-08-07T02:12:59;21.60;99.90
37281;DHT22;23169;41.804;12.596;2023-08-07T02:17:58;21.60;99.90
37281;DHT22;23169;41.804;12.596;2023-08-07T02:20:27;21.60;99.90
37281;DHT22;23169;41.804;12.596;2023-08-07T02:22:56;21.60;99.90
37281;DHT22;23169;41.804;12.596;2023-08-07T02:25:25;21.60;99.90
37281;DHT22;23169;41.804;12.596;2023-08-07T02:27:54;21.60;99.90
37281;DHT22;23169;41.804;12.596;2023-08-07T02:30:23;21.60;99.90
37281;DHT22;23169;41.804;12.596;2023-08-07T02:32:52;21.60;99.90
37281;DHT22;23169;41.804;12.596;2023-08-07T02:35:21;21.60;99.90
37281;DHT22;23169;41.804;12.596;2023-08-07T02:37:50;21.50;99.90
37281;DHT22;23169;41.804;12.596;2023-08-07T02:40:18;21.50;99.90
37281;DHT22;23169;41.804;12.596;2023-08-07T02:42:47;21.50;99.90
37281;DHT22;23169;41.804;12.596;2023-08-07T02:45:16;21.50;99.90
37281;DHT22;23169;41.804;12.596;2023-08-07T02:47:45;21.50;99.90
37281;DHT22;23169;41.804;12.596;2023-08-07T02:50:14;21.50;99.90
37281;DHT22;23169;41.804;12.596;2023-08-07T02:52:43;21.50;99.90
37281;DHT22;23169;41.804;12.596;2023-08-07T02:55:12;21.50;99.90
37281;DHT22;23169;41.804;12.596;2023-08-07T02:57:42;21.50;99.90
37281;DHT22;23169;41.804;12.596;2023-08-07T03:00:12;21.50;99.90
37281;DHT22;23169;41.804;12.596;2023-08-07T03:02:42;21.40;99.90
37281;DHT22;23169;41.804;12.596;2023-08-07T03:07:42;21.50;99.90
37281;DHT22;23169;41.804;12.596;2023-08-07T03:10:11;21.40;99.90
37281;DHT22;23169;41.804;12.596;2023-08-07T03:12:41;21.40;99.90
37281;DHT22;23169;41.804;12.596;2023-08-07T03:15:13;21.30;99.90
37281;DHT22;23169;41.804;12.596;2023-08-07T03:17:43;21.30;99.90
37281;DHT22;23169;41.804;12.596;2023-08-07T03:20:12;21.30;99.90
37281;DHT22;23169;41.804;12.596;2023-08-07T03:22:42;21.30;99.90
37281;DHT22;23169;41.804;12.596;2023-08-07T03:25:12;21.30;99.90
37281;DHT22;23169;41.804;12.596;2023-08-07T03:27:43;21.30;99.90
37281;DHT22;23169;41.804;12.596;2023-08-07T03:30:12;21.30;99.90
37281;DHT22;23169;41.804;12.596;2023-08-07T03:32:41;21.20;99.90
37281;DHT22;23169;41.804;12.596;2023-08-07T03:35:10;21.20;99.90
37281;DHT22;23169;41.804;12.596;2023-08-07T03:37:40;21.20;99.90
37281;DHT22;23169;41.804;12.596;2023-08-07T03:40:09;20.80;99.90
37281;DHT22;23169;41.804;12.596;2023-08-07T03:42:37;21.20;99.90
37281;DHT22;23169;41.804;12.596;2023-08-07T03:45:06;21.20;99.90
37281;DHT22;23169;41.804;12.596;2023-08-07T03:47:36;21.20;99.90
37281;DHT22;23169;41.804;12.596;2023-08-07T03:50:05;21.10;99.90
37281;DHT22;23169;41.804;12.596;2023-08-07T03:52:35;21.10;99.90
37281;DHT22;23169;41.804;12.596;2023-08-07T03:55:04;21.20;99.90
37281;DHT22;23169;41.804;12.596;2023-08-07T03:57:36;21.20;99.90
37281;DHT22;23169;41.804;12.596;2023-08-07T04:00:05;21.20;99.90
37281;DHT22;23169;41.804;12.596;2023-08-07T04:02:34;21.20;99.90
37281;DHT22;23169;41.804;12.596;2023-08-07T04:05:03;21.20;99.90
37281;DHT22;23169;41.804;12.596;2023-08-07T04:07:32;21.20;99.90
37281;DHT22;23169;41.804;12.596;2023-08-07T04:10:00;21.20;99.90
37281;DHT22;23169;41.804;12.596;2023-08-07T04:12:30;21.20;99.90
37281;DHT22;23169;41.804;12.596;2023-08-07T04:14:59;21.20;99.90
37281;DHT22;23169;41.804;12.596;2023-08-07T04:17:28;21.20;99.90
37281;DHT22;23169;41.804;12.596;2023-08-07T04:19:58;21.30;99.90
37281;DHT22;23169;41.804;12.596;2023-08-07T04:22:28;21.20;99.90
37281;DHT22;23169;41.804;12.596;2023-08-07T04:24:56;21.20;99.90
37281;DHT22;23169;41.804;12.596;2023-08-07T04:27:25;21.30;99.90
37281;DHT22;23169;41.804;12.596;2023-08-07T04:29:55;21.20;99.90
37281;DHT22;23169;41.804;12.596;2023-08-07T04:32:23;21.20;99.90
37281;DHT22;23169;41.804;12.596;2023-08-07T04:34:52;21.20;99.90
37281;DHT22;23169;41.804;12.596;2023-08-07T04:37:22;21.30;99.90
37281;DHT22;23169;41.804;12.596;2023-08-07T04:39:51;21.40;99.90
37281;DHT22;23169;41.804;12.596;2023-08-07T04:42:20;21.40;99.90
37281;DHT22;23169;41.804;12.596;2023-08-07T04:44:49;21.40;99.90
37281;DHT22;23169;41.804;12.596;2023-08-07T04:47:17;21.40;99.90
37281;DHT22;23169;41.804;12.596;2023-08-07T04:49:46;21.40;99.90
37281;DHT22;23169;41.804;12.596;2023-08-07T04:52:15;21.40;99.90
37281;DHT22;23169;41.804;12.596;2023-08-07T04:54:44;21.50;99.90
37281;DHT22;23169;41.804;12.596;2023-08-07T04:57:13;21.50;99.90
37281;DHT22;23169;41.804;12.596;2023-08-07T04:59:42;21.50;99.90
37281;DHT22;23169;41.804;12.596;2023-08-07T05:02:13;21.50;99.90
37281;DHT22;23169;41.804;12.596;2023-08-07T05:04:42;21.60;99.90
37281;DHT22;23169;41.804;12.596;2023-08-07T05:07:11;21.70;99.90
37281;DHT22;23169;41.804;12.596;2023-08-07T05:09:40;21.70;99.90
37281;DHT22;23169;41.804;12.596;2023-08-07T05:14:56;21.80;99.90
37281;DHT22;23169;41.804;12.596;2023-08-07T05:17:25;21.90;99.90
37281;DHT22;23169;41.804;12.596;2023-08-07T05:19:54;22.00;99.90
37281;DHT22;23169;41.804;12.596;2023-08-07T05:22:22;22.00;99.90
37281;DHT22;23169;41.804;12.596;2023-08-07T05:24:51;22.00;99.90
37281;DHT22;23169;41.804;12.596;2023-08-07T05:27:20;22.00;99.90
37281;DHT22;23169;41.804;12.596;2023-08-07T05:29:50;22.00;99.90
37281;DHT22;23169;41.804;12.596;2023-08-07T05:32:19;22.10;99.90
37281;DHT22;23169;41.804;12.596;2023-08-07T05:34:49;22.10;99.90
37281;DHT22;23169;41.804;12.596;2023-08-07T05:37:25;22.20;99.90
37281;DHT22;23169;41.804;12.596;2023-08-07T05:39:55;21.90;99.90
37281;DHT22;23169;41.804;12.596;2023-08-07T05:42:26;22.30;99.90
37281;DHT22;23169;41.804;12.596;2023-08-07T05:44:58;22.40;99.90
37281;DHT22;23169;41.804;12.596;2023-08-07T05:49:56;22.70;99.90
37281;DHT22;23169;41.804;12.596;2023-08-07T05:52:24;22.80;99.90
37281;DHT22;23169;41.804;12.596;2023-08-07T05:54:54;23.00;99.90
37281;DHT22;23169;41.804;12.596;2023-08-07T05:57:22;23.10;99.90
37281;DHT22;23169;41.804;12.596;2023-08-07T05:59:51;23.30;99.90
37281;DHT22;23169;41.804;12.596;2023-08-07T06:02:20;23.40;99.90
37281;DHT22;23169;41.804;12.596;2023-08-07T06:04:48;23.50;99.40
37281;DHT22;23169;41.804;12.596;2023-08-07T06:07:17;23.50;99.90
37281;DHT22;23169;41.804;12.596;2023-08-07T06:09:46;23.30;99.90
37281;DHT22;23169;41.804;12.596;2023-08-07T06:12:15;23.00;99.90
37281;DHT22;23169;41.804;12.596;2023-08-07T06:14:44;22.90;99.90
37281;DHT22;23169;41.804;12.596;2023-08-07T06:17:13;22.70;99.90
37281;DHT22;23169;41.804;12.596;2023-08-07T06:19:44;22.60;99.90
37281;DHT22;23169;41.804;12.596;2023-08-07T06:22:14;22.70;99.90
37281;DHT22;23169;41.804;12.596;2023-08-07T06:24:43;22.60;99.90
37281;DHT22;23169;41.804;12.596;2023-08-07T06:27:12;22.60;99.90
37281;DHT22;23169;41.804;12.596;2023-08-07T06:29:41;22.70;99.90
37281;DHT22;23169;41.804;12.596;2023-08-07T06:32:09;22.70;99.90
37281;DHT22;23169;41.804;12.596;2023-08-07T06:34:39;22.80;99.90
37281;DHT22;23169;41.804;12.596;2023-08-07T06:37:08;22.90;99.90
37281;DHT22;23169;41.804;12.596;2023-08-07T06:39:37;22.90;99.90
37281;DHT22;23169;41.804;12.596;2023-08-07T06:42:05;23.00;99.90
37281;DHT22;23169;41.804;12.596;2023-08-07T06:44:35;23.00;99.90
37281;DHT22;23169;41.804;12.596;2023-08-07T06:47:04;23.00;99.90
37281;DHT22;23169;41.804;12.596;2023-08-07T06:49:33;23.00;99.90
37281;DHT22;23169;41.804;12.596;2023-08-07T06:52:02;23.00;99.90
37281;DHT22;23169;41.804;12.596;2023-08-07T06:54:31;23.00;99.90
37281;DHT22;23169;41.804;12.596;2023-08-07T06:57:01;23.00;99.90
37281;DHT22;23169;41.804;12.596;2023-08-07T06:59:30;23.30;99.90
37281;DHT22;23169;41.804;12.596;2023-08-07T07:01:59;23.40;99.90
37281;DHT22;23169;41.804;12.596;2023-08-07T07:04:31;23.40;99.90
37281;DHT22;23169;41.804;12.596;2023-08-07T07:07:02;23.60;99.90
37281;DHT22;23169;41.804;12.596;2023-08-07T07:09:31;23.80;99.90
37281;DHT22;23169;41.804;12.596;2023-08-07T07:12:00;23.80;99.80
37281;DHT22;23169;41.804;12.596;2023-08-07T07:14:32;24.00;99.00
37281;DHT22;23169;41.804;12.596;2023-08-07T07:20:45;24.60;72.00
37281;DHT22;23169;41.804;12.596;2023-08-07T07:23:15;24.90;67.90
37281;DHT22;23169;41.804;12.596;2023-08-07T07:25:44;25.00;50.40
37281;DHT22;23169;41.804;12.596;2023-08-07T07:28:14;25.20;56.20
37281;DHT22;23169;41.804;12.596;2023-08-07T07:30:42;25.40;47.90
37281;DHT22;23169;41.804;12.596;2023-08-07T07:33:13;25.30;24.10
37281;DHT22;23169;41.804;12.596;2023-08-07T07:35:44;25.30;19.30
37281;DHT22;23169;41.804;12.596;2023-08-07T07:38:13;25.50;27.30
37281;DHT22;23169;41.804;12.596;2023-08-07T07:40:44;25.80;12.20
37281;DHT22;23169;41.804;12.596;2023-08-07T07:43:15;25.90;9.40
37281;DHT22;23169;41.804;12.596;2023-08-07T07:45:45;26.00;7.40
37281;DHT22;23169;41.804;12.596;2023-08-07T07:48:16;26.30;4.70
37281;DHT22;23169;41.804;12.596;2023-08-07T07:50:45;26.50;1.00
37281;DHT22;23169;41.804;12.596;2023-08-07T07:53:16;26.60;1.00
37281;DHT22;23169;41.804;12.596;2023-08-07T07:55:48;26.70;1.00
37281;DHT22;23169;41.804;12.596;2023-08-07T07:58:20;26.60;1.00
37281;DHT22;23169;41.804;12.596;2023-08-07T08:00:50;26.70;1.00
37281;DHT22;23169;41.804;12.596;2023-08-07T08:03:24;26.90;1.00
37281;DHT22;23169;41.804;12.596;2023-08-07T08:05:53;27.20;1.00
37281;DHT22;23169;41.804;12.596;2023-08-07T08:08:22;27.50;1.00
37281;DHT22;23169;41.804;12.596;2023-08-07T08:10:51;27.70;1.00
37281;DHT22;23169;41.804;12.596;2023-08-07T08:13:20;27.40;1.00
37281;DHT22;23169;41.804;12.596;2023-08-07T08:18:19;26.70;1.00
37281;DHT22;23169;41.804;12.596;2023-08-07T08:20:50;27.00;1.00
37281;DHT22;23169;41.804;12.596;2023-08-07T08:23:18;27.10;1.00
37281;DHT22;23169;41.804;12.596;2023-08-07T08:25:48;27.00;1.00
37281;DHT22;23169;41.804;12.596;2023-08-07T08:28:17;27.10;1.00
37281;DHT22;23169;41.804;12.596;2023-08-07T08:30:48;26.90;1.00
37281;DHT22;23169;41.804;12.596;2023-08-07T08:33:17;26.70;1.00
37281;DHT22;23169;41.804;12.596;2023-08-07T08:35:46;26.60;1.00
37281;DHT22;23169;41.804;12.596;2023-08-07T08:38:16;26.70;1.00
37281;DHT22;23169;41.804;12.596;2023-08-07T08:40:46;26.80;1.00
37281;DHT22;23169;41.804;12.596;2023-08-07T08:43:15;26.80;1.00
37281;DHT22;23169;41.804;12.596;2023-08-07T08:45:45;26.60;1.00
37281;DHT22;23169;41.804;12.596;2023-08-07T08:48:19;26.50;1.00
37281;DHT22;23169;41.804;12.596;2023-08-07T08:50:50;26.20;1.00
37281;DHT22;23169;41.804;12.596;2023-08-07T08:53:21;26.20;1.00
37281;DHT22;23169;41.804;12.596;2023-08-07T08:55:52;26.10;1.00
37281;DHT22;23169;41.804;12.596;2023-08-07T08:58:23;26.30;1.00
37281;DHT22;23169;41.804;12.596;2023-08-07T09:00:52;26.50;1.00
37281;DHT22;23169;41.804;12.596;2023-08-07T09:05:57;26.90;1.00
37281;DHT22;23169;41.804;12.596;2023-08-07T09:08:27;26.50;1.00
37281;DHT22;23169;41.804;12.596;2023-08-07T09:10:58;26.30;1.00
37281;DHT22;23169;41.804;12.596;2023-08-07T09:13:29;26.10;1.00
37281;DHT22;23169;41.804;12.596;2023-08-07T09:16:02;26.10;1.00
37281;DHT22;23169;41.804;12.596;2023-08-07T09:18:33;26.10;1.00
37281;DHT22;23169;41.804;12.596;2023-08-07T09:21:03;26.00;1.00
37281;DHT22;23169;41.804;12.596;2023-08-07T09:26:04;25.60;1.00
37281;DHT22;23169;41.804;12.596;2023-08-07T09:28:35;25.60;1.00
37281;DHT22;23169;41.804;12.596;2023-08-07T09:31:06;25.60;1.00
37281;DHT22;23169;41.804;12.596;2023-08-07T09:33:39;25.70;1.00
37281;DHT22;23169;41.804;12.596;2023-08-07T09:38:37;26.70;1.00
37281;DHT22;23169;41.804;12.596;2023-08-07T09:43:36;27.40;1.00
37281;DHT22;23169;41.804;12.596;2023-08-07T09:46:06;27.80;1.00
37281;DHT22;23169;41.804;12.596;2023-08-07T09:48:41;28.20;1.00
37281;DHT22;23169;41.804;12.596;2023-08-07T09:51:10;28.60;1.00
37281;DHT22;23169;41.804;12.596;2023-08-07T09:53:39;28.40;1.00
37281;DHT22;23169;41.804;12.596;2023-08-07T09:56:09;28.90;1.00
37281;DHT22;23169;41.804;12.596;2023-08-07T09:58:38;29.00;1.00
37281;DHT22;23169;41.804;12.596;2023-08-07T10:01:08;29.20;1.00
37281;DHT22;23169;41.804;12.596;2023-08-07T10:03:39;29.00;1.00
37281;DHT22;23169;41.804;12.596;2023-08-07T10:06:09;28.70;1.00
37281;DHT22;23169;41.804;12.596;2023-08-07T10:08:40;28.70;1.00
37281;DHT22;23169;41.804;12.596;2023-08-07T10:11:12;28.50;1.00
37281;DHT22;23169;41.804;12.596;2023-08-07T10:13:43;28.50;1.00
37281;DHT22;23169;41.804;12.596;2023-08-07T10:16:14;28.30;1.00
37281;DHT22;23169;41.804;12.596;2023-08-07T10:18:43;28.70;1.00
37281;DHT22;23169;41.804;12.596;2023-08-07T10:21:12;28.40;1.00
37281;DHT22;23169;41.804;12.596;2023-08-07T10:23:42;28.50;1.00
37281;DHT22;23169;41.804;12.596;2023-08-07T10:26:12;28.60;1.00
37281;DHT22;23169;41.804;12.596;2023-08-07T10:28:43;28.50;1.00
37281;DHT22;23169;41.804;12.596;2023-08-07T10:31:13;28.50;1.00
37281;DHT22;23169;41.804;12.596;2023-08-07T10:33:43;28.60;1.00
37281;DHT22;23169;41.804;12.596;2023-08-07T10:36:12;28.70;1.00
37281;DHT22;23169;41.804;12.596;2023-08-07T10:38:41;28.40;1.00
37281;DHT22;23169;41.804;12.596;2023-08-07T10:41:14;28.60;1.00
37281;DHT22;23169;41.804;12.596;2023-08-07T10:43:44;28.70;1.00
37281;DHT22;23169;41.804;12.596;2023-08-07T10:46:19;28.60;1.00
37281;DHT22;23169;41.804;12.596;2023-08-07T10:48:56;28.30;1.00
37281;DHT22;23169;41.804;12.596;2023-08-07T10:51:29;28.30;1.00
37281;DHT22;23169;41.804;12.596;2023-08-07T10:54:01;28.70;1.00
37281;DHT22;23169;41.804;12.596;2023-08-07T10:56:33;28.60;1.00
37281;DHT22;23169;41.804;12.596;2023-08-07T10:59:10;28.60;1.00
37281;DHT22;23169;41.804;12.596;2023-08-07T11:04:14;28.60;1.00
37281;DHT22;23169;41.804;12.596;2023-08-07T11:06:46;29.30;1.00
37281;DHT22;23169;41.804;12.596;2023-08-07T11:09:16;29.60;1.00
37281;DHT22;23169;41.804;12.596;2023-08-07T11:11:48;29.20;1.00
37281;DHT22;23169;41.804;12.596;2023-08-07T11:14:19;29.60;1.00
37281;DHT22;23169;41.804;12.596;2023-08-07T11:16:48;29.50;1.00
37281;DHT22;23169;41.804;12.596;2023-08-07T11:19:17;29.50;1.00
37281;DHT22;23169;41.804;12.596;2023-08-07T11:21:48;29.20;1.00
37281;DHT22;23169;41.804;12.596;2023-08-07T11:24:17;29.20;1.00
37281;DHT22;23169;41.804;12.596;2023-08-07T11:26:48;28.70;1.00
37281;DHT22;23169;41.804;12.596;2023-08-07T11:29:19;28.50;1.00
37281;DHT22;23169;41.804;12.596;2023-08-07T11:31:50;28.20;1.00
37281;DHT22;23169;41.804;12.596;2023-08-07T11:34:18;28.10;1.00
37281;DHT22;23169;41.804;12.596;2023-08-07T11:36:48;28.00;1.00
37281;DHT22;23169;41.804;12.596;2023-08-07T11:39:17;27.90;1.00
37281;DHT22;23169;41.804;12.596;2023-08-07T11:41:50;28.10;1.00
37281;DHT22;23169;41.804;12.596;2023-08-07T11:44:20;28.10;1.00
37281;DHT22;23169;41.804;12.596;2023-08-07T11:46:51;28.50;1.00
37281;DHT22;23169;41.804;12.596;2023-08-07T11:49:20;28.70;1.00
37281;DHT22;23169;41.804;12.596;2023-08-07T11:51:50;29.40;1.00
37281;DHT22;23169;41.804;12.596;2023-08-07T11:54:19;29.80;1.00
37281;DHT22;23169;41.804;12.596;2023-08-07T11:56:48;29.40;1.00
37281;DHT22;23169;41.804;12.596;2023-08-07T11:59:17;29.40;1.00
37281;DHT22;23169;41.804;12.596;2023-08-07T12:01:47;29.10;1.00
37281;DHT22;23169;41.804;12.596;2023-08-07T12:04:17;28.80;1.00
37281;DHT22;23169;41.804;12.596;2023-08-07T12:06:56;28.60;1.00
37281;DHT22;23169;41.804;12.596;2023-08-07T12:09:26;28.20;1.00
37281;DHT22;23169;41.804;12.596;2023-08-07T12:11:59;28.30;1.00
37281;DHT22;23169;41.804;12.596;2023-08-07T12:14:29;28.20;1.00
37281;DHT22;23169;41.804;12.596;2023-08-07T12:17:01;28.50;1.00
37281;DHT22;23169;41.804;12.596;2023-08-07T12:19:41;28.50;1.00
37281;DHT22;23169;41.804;12.596;2023-08-07T12:22:11;28.30;1.00
37281;DHT22;23169;41.804;12.596;2023-08-07T12:24:40;28.00;1.00
37281;DHT22;23169;41.804;12.596;2023-08-07T12:27:10;28.20;1.00
37281;DHT22;23169;41.804;12.596;2023-08-07T12:32:08;29.90;1.00
37281;DHT22;23169;41.804;12.596;2023-08-07T12:34:39;30.90;1.00
37281;DHT22;23169;41.804;12.596;2023-08-07T12:37:09;31.50;1.00
37281;DHT22;23169;41.804;12.596;2023-08-07T12:39:38;31.80;1.00
37281;DHT22;23169;41.804;12.596;2023-08-07T12:44:37;30.40;1.00
37281;DHT22;23169;41.804;12.596;2023-08-07T12:47:06;30.30;1.00
37281;DHT22;23169;41.804;12.596;2023-08-07T12:49:34;29.90;1.00
37281;DHT22;23169;41.804;12.596;2023-08-07T12:52:03;30.00;1.00
37281;DHT22;23169;41.804;12.596;2023-08-07T12:54:32;30.80;1.00
37281;DHT22;23169;41.804;12.596;2023-08-07T12:57:01;31.60;1.00
37281;DHT22;23169;41.804;12.596;2023-08-07T12:59:30;32.00;1.00
37281;DHT22;23169;41.804;12.596;2023-08-07T13:02:00;31.40;1.00
37281;DHT22;23169;41.804;12.596;2023-08-07T13:04:31;30.90;1.00
37281;DHT22;23169;41.804;12.596;2023-08-07T13:07:02;30.10;1.00
37281;DHT22;23169;41.804;12.596;2023-08-07T13:09:31;29.70;1.00
37281;DHT22;23169;41.804;12.596;2023-08-07T13:14:29;28.20;1.00
37281;DHT22;23169;41.804;12.596;2023-08-07T13:16:58;28.30;1.00
37281;DHT22;23169;41.804;12.596;2023-08-07T13:19:27;28.00;1.00
37281;DHT22;23169;41.804;12.596;2023-08-07T13:21:59;28.20;1.00
37281;DHT22;23169;41.804;12.596;2023-08-07T13:24:30;29.00;1.00
37281;DHT22;23169;41.804;12.596;2023-08-07T13:27:01;29.20;1.00
37281;DHT22;23169;41.804;12.596;2023-08-07T13:29:31;29.70;1.00
37281;DHT22;23169;41.804;12.596;2023-08-07T13:32:01;30.20;1.00
37281;DHT22;23169;41.804;12.596;2023-08-07T13:34:33;30.60;1.00
37281;DHT22;23169;41.804;12.596;2023-08-07T13:37:04;31.00;1.00
37281;DHT22;23169;41.804;12.596;2023-08-07T13:39:34;30.00;1.00
37281;DHT22;23169;41.804;12.596;2023-08-07T13:42:03;29.60;1.00
37281;DHT22;23169;41.804;12.596;2023-08-07T13:44:33;28.90;1.00
37281;DHT22;23169;41.804;12.596;2023-08-07T13:47:06;29.00;1.00
37281;DHT22;23169;41.804;12.596;2023-08-07T13:49:35;29.70;1.00
37281;DHT22;23169;41.804;12.596;2023-08-07T13:52:04;30.50;1.00
37281;DHT22;23169;41.804;12.596;2023-08-07T13:54:34;30.20;1.00
37281;DHT22;23169;41.804;12.596;2023-08-07T13:57:03;29.70;1.00
37281;DHT22;23169;41.804;12.596;2023-08-07T13:59:32;29.90;1.00
37281;DHT22;23169;41.804;12.596;2023-08-07T14:02:01;29.80;1.00
37281;DHT22;23169;41.804;12.596;2023-08-07T14:04:30;29.30;1.00
37281;DHT22;23169;41.804;12.596;2023-08-07T14:06:59;29.10;1.00
37281;DHT22;23169;41.804;12.596;2023-08-07T14:09:28;29.40;1.00
37281;DHT22;23169;41.804;12.596;2023-08-07T14:11:57;30.10;1.00
37281;DHT22;23169;41.804;12.596;2023-08-07T14:14:26;30.00;1.00
37281;DHT22;23169;41.804;12.596;2023-08-07T14:16:55;30.70;1.00
37281;DHT22;23169;41.804;12.596;2023-08-07T14:19:29;31.00;1.00
37281;DHT22;23169;41.804;12.596;2023-08-07T14:21:58;31.10;1.00
37281;DHT22;23169;41.804;12.596;2023-08-07T14:24:27;31.50;1.00
37281;DHT22;23169;41.804;12.596;2023-08-07T14:26:56;32.10;1.00
37281;DHT22;23169;41.804;12.596;2023-08-07T14:29:25;32.20;1.00
37281;DHT22;23169;41.804;12.596;2023-08-07T14:31:53;32.50;1.00
37281;DHT22;23169;41.804;12.596;2023-08-07T14:34:22;32.00;1.00
37281;DHT22;23169;41.804;12.596;2023-08-07T14:36:50;31.70;1.00
37281;DHT22;23169;41.804;12.596;2023-08-07T14:39:20;31.30;1.00
37281;DHT22;23169;41.804;12.596;2023-08-07T14:41:50;31.10;1.00
37281;DHT22;23169;41.804;12.596;2023-08-07T14:44:20;31.40;1.00
37281;DHT22;23169;41.804;12.596;2023-08-07T14:46:49;31.30;1.00
37281;DHT22;23169;41.804;12.596;2023-08-07T14:49:18;31.00;1.00
37281;DHT22;23169;41.804;12.596;2023-08-07T14:51:47;31.50;1.00
37281;DHT22;23169;41.804;12.596;2023-08-07T14:54:17;31.40;1.00
37281;DHT22;23169;41.804;12.596;2023-08-07T14:56:46;31.50;1.00
37281;DHT22;23169;41.804;12.596;2023-08-07T14:59:15;31.40;1.00
37281;DHT22;23169;41.804;12.596;2023-08-07T15:01:44;31.80;1.00
37281;DHT22;23169;41.804;12.596;2023-08-07T15:04:13;32.20;1.00
37281;DHT22;23169;41.804;12.596;2023-08-07T15:06:42;32.30;1.00
37281;DHT22;23169;41.804;12.596;2023-08-07T15:09:16;32.50;1.00
37281;DHT22;23169;41.804;12.596;2023-08-07T15:11:47;32.40;1.00
37281;DHT22;23169;41.804;12.596;2023-08-07T15:14:17;32.00;1.00
37281;DHT22;23169;41.804;12.596;2023-08-07T15:16:47;32.10;1.00
37281;DHT22;23169;41.804;12.596;2023-08-07T15:19:17;32.00;1.00
37281;DHT22;23169;41.804;12.596;2023-08-07T15:21:46;32.30;1.00
37281;DHT22;23169;41.804;12.596;2023-08-07T15:24:16;32.40;1.00
37281;DHT22;23169;41.804;12.596;2023-08-07T15:26:45;33.30;1.00
37281;DHT22;23169;41.804;12.596;2023-08-07T15:29:14;33.40;1.00
37281;DHT22;23169;41.804;12.596;2023-08-07T15:31:44;33.80;1.00
37281;DHT22;23169;41.804;12.596;2023-08-07T15:34:19;33.80;1.00
37281;DHT22;23169;41.804;12.596;2023-08-07T15:36:49;33.70;1.00
37281;DHT22;23169;41.804;12.596;2023-08-07T15:39:18;33.20;1.00
37281;DHT22;23169;41.804;12.596;2023-08-07T15:41:47;33.10;1.00
37281;DHT22;23169;41.804;12.596;2023-08-07T15:44:16;33.40;1.00
37281;DHT22;23169;41.804;12.596;2023-08-07T15:46:45;33.60;1.00
37281;DHT22;23169;41.804;12.596;2023-08-07T15:49:14;33.20;1.00
37281;DHT22;23169;41.804;12.596;2023-08-07T15:51:43;32.40;1.00
37281;DHT22;23169;41.804;12.596;2023-08-07T15:54:12;32.00;1.00
37281;DHT22;23169;41.804;12.596;2023-08-07T15:56:41;32.00;1.00
37281;DHT22;23169;41.804;12.596;2023-08-07T15:59:10;32.00;1.00
37281;DHT22;23169;41.804;12.596;2023-08-07T16:01:38;31.60;1.00
37281;DHT22;23169;41.804;12.596;2023-08-07T16:04:08;30.50;1.00
37281;DHT22;23169;41.804;12.596;2023-08-07T16:06:38;29.80;1.00
37281;DHT22;23169;41.804;12.596;2023-08-07T16:09:07;29.20;1.00
37281;DHT22;23169;41.804;12.596;2023-08-07T16:11:38;28.90;1.00
37281;DHT22;23169;41.804;12.596;2023-08-07T16:14:07;28.70;1.00
37281;DHT22;23169;41.804;12.596;2023-08-07T16:16:37;28.50;1.00
37281;DHT22;23169;41.804;12.596;2023-08-07T16:19:06;28.40;1.00
37281;DHT22;23169;41.804;12.596;2023-08-07T16:21:35;28.30;1.00
37281;DHT22;23169;41.804;12.596;2023-08-07T16:24:07;28.00;1.00
37281;DHT22;23169;41.804;12.596;2023-08-07T16:29:07;27.70;1.00
37281;DHT22;23169;41.804;12.596;2023-08-07T16:31:38;27.50;1.00
37281;DHT22;23169;41.804;12.596;2023-08-07T16:34:08;27.40;1.00
37281;DHT22;23169;41.804;12.596;2023-08-07T16:36:40;27.50;1.00
37281;DHT22;23169;41.804;12.596;2023-08-07T16:39:10;27.50;1.00